createdAt,value
2024-02-22T00:02:22.963Z,32.00
2024-02-22T00:07:25.976Z,28.30
2024-02-22T00:12:28.995Z,30.90
2024-02-22T00:17:32.498Z,31.80
2024-02-22T00:22:35.473Z,33.30
2024-02-22T00:27:40.019Z,33.90
2024-02-22T00:32:44.043Z,28.90
2024-02-22T00:37:47.096Z,30.70
2024-02-22T00:42:50.463Z,32.80
2024-02-22T00:47:53.685Z,38.50
2024-02-22T00:52:59.690Z,30.80
2024-02-22T00:58:03.105Z,35.60
2024-02-22T01:03:07.389Z,32.80
2024-02-22T01:08:10.550Z,38.20
2024-02-22T01:13:13.723Z,34.20
2024-02-22T01:18:17.142Z,33.80
2024-02-22T01:23:20.262Z,39.80
2024-02-22T01:28:23.337Z,34.60
2024-02-22T01:33:26.409Z,32.00
2024-02-22T01:38:29.330Z,33.90
2024-02-22T01:43:33.621Z,35.40
2024-02-22T01:48:37.895Z,41.90
2024-02-22T01:53:41.086Z,31.70
2024-02-22T01:58:44.990Z,38.20
2024-02-22T02:03:48.346Z,36.10
2024-02-22T02:08:51.291Z,35.50
2024-02-22T02:13:54.407Z,35.70
2024-02-22T02:18:57.831Z,38.10
2024-02-22T02:24:30.974Z,36.60
2024-02-22T02:29:33.925Z,33.70
2024-02-22T02:34:36.916Z,33.20
2024-02-22T02:39:39.897Z,29.60
2024-02-22T02:44:43.850Z,34.80
2024-02-22T02:49:46.797Z,31.20
2024-02-22T02:54:49.735Z,33.30
2024-02-22T02:59:52.669Z,42.40
2024-02-22T03:04:55.688Z,31.40
2024-02-22T03:09:58.699Z,36.20
2024-02-22T03:15:04.484Z,26.70
2024-02-22T03:20:14.052Z,30.50
2024-02-22T03:25:17.865Z,30.90
2024-02-22T03:30:21.132Z,33.20
2024-02-22T03:35:24.661Z,28.20
2024-02-22T03:40:27.738Z,31.80
2024-02-22T03:45:30.785Z,35.10
2024-02-22T03:50:34.092Z,41.00
2024-02-22T03:55:37.328Z,44.50
2024-02-22T04:00:40.453Z,31.70
2024-02-22T04:05:43.994Z,38.00
2024-02-22T04:10:47.083Z,31.70
2024-02-22T04:15:50.673Z,29.40
2024-02-22T04:20:53.645Z,34.50
2024-02-22T04:25:56.726Z,38.70
2024-02-22T04:30:59.855Z,38.00
2024-02-22T04:36:03.280Z,36.90
2024-02-22T04:41:06.339Z,36.40
2024-02-22T04:46:09.266Z,33.00
2024-02-22T04:51:12.180Z,34.00
2024-02-22T04:56:15.201Z,34.20
2024-02-22T05:01:19.396Z,38.70
2024-02-22T05:06:25.628Z,42.10
2024-02-22T05:11:29.273Z,40.30
2024-02-22T05:16:32.365Z,57.80
2024-02-22T05:21:35.378Z,37.80
2024-02-22T05:26:38.764Z,37.70
2024-02-22T05:31:41.671Z,40.30
2024-02-22T05:36:44.831Z,38.50
2024-02-22T05:41:47.785Z,29.40
2024-02-22T05:46:50.745Z,39.40
2024-02-22T05:51:54.337Z,43.10
2024-02-22T05:56:57.269Z,42.90
2024-02-22T06:02:00.295Z,41.20
2024-02-22T06:07:03.487Z,51.50
2024-02-22T06:12:10.598Z,47.40
2024-02-22T06:17:14.984Z,47.00
2024-02-22T06:22:17.936Z,47.50
2024-02-22T06:27:20.876Z,69.30
2024-02-22T06:32:27.811Z,62.00
2024-02-22T06:37:30.982Z,70.50
2024-02-22T06:42:35.166Z,50.90
2024-02-22T06:47:38.197Z,45.10
2024-02-22T06:52:41.237Z,47.50
2024-02-22T06:57:44.218Z,48.50
2024-02-22T07:02:47.253Z,54.30
2024-02-22T07:07:50.235Z,49.00
2024-02-22T07:12:53.230Z,52.50
2024-02-22T07:17:56.331Z,55.00
2024-02-22T07:22:59.385Z,43.30
2024-02-22T07:28:04.630Z,40.10
2024-02-22T07:33:08.899Z,37.00
2024-02-22T07:38:11.979Z,43.60
2024-02-22T07:43:15.077Z,37.00
2024-02-22T07:48:18.808Z,39.80
2024-02-22T07:53:22.111Z,34.90
2024-02-22T07:58:25.041Z,36.20
2024-02-22T08:03:28.316Z,31.40
2024-02-22T08:08:32.333Z,39.70
2024-02-22T08:13:36.037Z,30.60
2024-02-22T08:18:43.636Z,35.10
2024-02-22T08:23:46.674Z,33.40
2024-02-22T08:28:49.935Z,36.90
2024-02-22T08:33:53.081Z,35.90
2024-02-22T08:38:58.795Z,32.30
2024-02-22T08:44:01.964Z,34.80
2024-02-22T08:49:06.789Z,30.40
2024-02-22T08:54:09.922Z,35.20
2024-02-22T08:59:13.223Z,31.70
2024-02-22T09:04:16.222Z,37.70
2024-02-22T09:09:19.230Z,41.30
2024-02-22T09:14:23.308Z,49.90
2024-02-22T09:19:27.173Z,26.60
2024-02-22T09:24:31.382Z,25.90
2024-02-22T09:29:36.941Z,26.20
2024-02-22T09:34:40.587Z,33.20
2024-02-22T09:39:45.010Z,48.40
2024-02-22T09:44:48.136Z,49.00
2024-02-22T09:49:51.211Z,29.30
2024-02-22T09:54:54.242Z,32.60
2024-02-22T09:59:57.220Z,27.60
2024-02-22T10:05:01.911Z,26.50
2024-02-22T10:10:05.688Z,28.00
2024-02-22T10:15:19.187Z,25.10
2024-02-22T10:20:34.946Z,26.40
2024-02-22T10:25:38.725Z,28.50
2024-02-22T10:30:42.017Z,28.60
2024-02-22T10:35:45.964Z,27.70
2024-02-22T10:40:50.289Z,23.00
2024-02-22T10:46:03.360Z,23.90
2024-02-22T10:51:06.915Z,20.90
2024-02-22T10:56:16.487Z,19.30
2024-02-22T11:01:24.019Z,21.90
2024-02-22T11:06:27.165Z,22.90
2024-02-22T11:11:32.352Z,19.00
2024-02-22T11:16:37.305Z,19.00
2024-02-22T11:21:41.526Z,21.60
2024-02-22T11:26:44.491Z,23.00
2024-02-22T11:31:50.892Z,16.30
2024-02-22T11:37:24.061Z,18.10
2024-02-22T11:42:27.921Z,15.80
2024-02-22T11:47:31.090Z,17.60
2024-02-22T11:52:34.078Z,15.60
2024-02-22T11:57:37.183Z,15.10
2024-02-22T12:02:41.626Z,17.30
2024-02-22T12:07:45.610Z,15.20
2024-02-22T12:12:48.799Z,15.70
2024-02-22T12:17:53.765Z,16.80
2024-02-22T12:22:57.173Z,13.90
2024-02-22T12:28:00.495Z,14.10
2024-02-22T12:33:10.327Z,15.40
2024-02-22T12:38:13.354Z,13.10
2024-02-22T12:43:23.252Z,17.70
2024-02-22T12:48:32.865Z,14.80
2024-02-22T12:53:36.281Z,14.70
2024-02-22T12:58:39.420Z,18.90
2024-02-22T13:03:45.944Z,15.20
2024-02-22T13:08:49.038Z,28.70
2024-02-22T13:13:52.446Z,29.50
2024-02-22T13:18:55.973Z,30.00
2024-02-22T13:23:59.151Z,22.70
2024-02-22T13:29:03.826Z,27.80
2024-02-22T13:34:07.279Z,26.60
2024-02-22T13:39:11.120Z,47.00
2024-02-22T13:44:20.322Z,27.60
2024-02-22T13:49:26.654Z,31.30
2024-02-22T13:54:29.716Z,32.60
2024-02-22T13:59:33.126Z,37.10
2024-02-22T14:04:38.101Z,25.30
2024-02-22T14:09:41.824Z,21.00
2024-02-22T14:14:44.961Z,21.20
2024-02-22T14:19:51.033Z,18.20
2024-02-22T14:24:59.940Z,23.00
2024-02-22T14:30:06.939Z,23.50
2024-02-22T14:35:11.153Z,17.50
2024-02-22T14:40:14.475Z,23.70
2024-02-22T14:45:19.360Z,25.50
2024-02-22T14:50:22.467Z,34.80
2024-02-22T14:55:25.515Z,73.80
2024-02-22T15:00:28.823Z,76.50
2024-02-22T15:05:31.951Z,88.90
2024-02-22T15:10:35.432Z,57.10
2024-02-22T15:15:38.508Z,54.20
2024-02-22T15:20:44.500Z,38.70
2024-02-22T15:25:47.847Z,53.50
2024-02-22T15:30:51.064Z,56.40
2024-02-22T15:35:54.068Z,37.90
2024-02-22T15:40:57.102Z,34.30
2024-02-22T15:46:00.276Z,34.20
2024-02-22T15:51:03.480Z,54.70
2024-02-22T15:56:09.165Z,160.00
2024-02-22T16:01:17.916Z,41.90
2024-02-22T16:06:23.234Z,64.00
2024-02-22T16:11:28.035Z,67.10
2024-02-22T16:16:31.450Z,73.50
2024-02-22T16:21:34.498Z,62.20
2024-02-22T16:26:37.520Z,55.90
2024-02-22T16:31:40.838Z,47.20
2024-02-22T16:36:44.263Z,34.20
2024-02-22T16:41:51.720Z,37.50
2024-02-22T16:46:55.029Z,69.00
2024-02-22T16:51:58.316Z,31.30
2024-02-22T16:57:01.834Z,32.70
2024-02-22T17:02:05.185Z,50.00
2024-02-22T17:07:08.398Z,45.40
2024-02-22T17:12:11.393Z,24.30
2024-02-22T17:17:14.537Z,28.00
2024-02-22T17:22:17.593Z,38.90
2024-02-22T17:27:20.575Z,41.80
2024-02-22T17:32:23.677Z,33.50
2024-02-22T17:37:27.195Z,27.70
2024-02-22T17:42:31.253Z,22.00
2024-02-22T17:47:37.266Z,19.40
2024-02-22T17:52:41.586Z,24.10
2024-02-22T17:57:44.568Z,20.00
2024-02-22T18:02:50.231Z,21.10
2024-02-22T18:07:59.730Z,25.70
2024-02-22T18:13:03.500Z,22.40
2024-02-22T18:18:08.585Z,21.80
2024-02-22T18:23:11.908Z,24.20
2024-02-22T18:28:15.538Z,24.90
2024-02-22T18:33:18.593Z,27.30
2024-02-22T18:38:21.733Z,24.60
2024-02-22T18:43:25.174Z,25.70
2024-02-22T18:48:29.162Z,23.10
2024-02-22T18:53:32.248Z,30.10
2024-02-22T18:58:35.182Z,25.00
2024-02-22T19:03:38.190Z,23.20
2024-02-22T19:08:41.227Z,25.10
2024-02-22T19:13:44.279Z,25.50
2024-02-22T19:18:49.263Z,27.90
2024-02-22T19:23:52.656Z,25.50
2024-02-22T19:28:57.736Z,25.80
2024-02-22T19:34:02.191Z,21.10
2024-02-22T19:39:05.358Z,22.40
2024-02-22T19:44:08.495Z,22.90
2024-02-22T19:49:11.695Z,25.20
2024-02-22T19:54:15.743Z,38.00
2024-02-22T19:59:18.824Z,65.70
2024-02-22T20:04:22.015Z,37.60
2024-02-22T20:09:25.077Z,33.50
2024-02-22T20:14:28.143Z,35.50
2024-02-22T20:19:31.251Z,36.00
2024-02-22T20:24:34.388Z,29.10
2024-02-22T20:29:37.459Z,27.70
2024-02-22T20:34:40.630Z,28.40
2024-02-22T20:39:44.592Z,27.30
2024-02-22T20:44:52.528Z,28.40
2024-02-22T20:49:55.538Z,28.60
2024-02-22T20:54:58.592Z,34.50
2024-02-22T21:00:02.327Z,30.10
2024-02-22T21:05:07.727Z,26.40
2024-02-22T21:10:11.907Z,27.80
2024-02-22T21:15:15.053Z,33.40
2024-02-22T21:20:18.399Z,31.70
2024-02-22T21:25:21.638Z,31.50
2024-02-22T21:30:24.704Z,38.00
2024-02-22T21:35:27.965Z,37.90
2024-02-22T21:40:31.117Z,66.40
2024-02-22T21:45:34.131Z,45.30
2024-02-22T21:50:38.954Z,62.40
2024-02-22T21:55:42.429Z,52.00
2024-02-22T22:00:45.415Z,34.40
2024-02-22T22:05:48.490Z,36.40
2024-02-22T22:10:53.144Z,41.10
2024-02-22T22:15:56.156Z,26.80
2024-02-22T22:20:59.233Z,27.20
2024-02-22T22:26:04.475Z,24.90
2024-02-22T22:31:07.593Z,25.40
2024-02-22T22:36:14.888Z,23.80
2024-02-22T22:41:20.244Z,24.60
2024-02-22T22:46:23.168Z,22.20
2024-02-22T22:51:26.164Z,25.60
2024-02-22T22:56:29.196Z,27.20
2024-02-22T23:01:32.144Z,26.30
2024-02-22T23:06:35.185Z,34.20
2024-02-22T23:11:38.518Z,27.50
2024-02-22T23:16:41.656Z,30.20
2024-02-22T23:21:44.571Z,26.20
2024-02-22T23:26:48.591Z,30.20
2024-02-22T23:31:51.879Z,31.10
2024-02-22T23:36:55.095Z,33.70
2024-02-22T23:41:58.160Z,23.80
2024-02-22T23:47:01.887Z,29.30
2024-02-22T23:52:05.354Z,24.00
2024-02-22T23:57:08.385Z,23.40
